sensor_id;sensor_type;location;lat;lon;timestamp;P1;durP1;ratioP1;P2;durP2;ratioP2
60243;SDS011;46106;51.468;5.814;2022-08-21T00:01:11;55.97;;;22.23;;
60243;SDS011;46106;51.468;5.814;2022-08-21T00:03:43;51.83;;;22.95;;
60243;SDS011;46106;51.468;5.814;2022-08-21T00:06:09;55.15;;;23.42;;
60243;SDS011;46106;51.468;5.814;2022-08-21T00:08:35;61.92;;;26.20;;
60243;SDS011;46106;51.468;5.814;2022-08-21T00:11:03;61.53;;;25.50;;
60243;SDS011;46106;51.468;5.814;2022-08-21T00:13:33;61.75;;;29.88;;
60243;SDS011;46106;51.468;5.814;2022-08-21T00:15:59;62.22;;;27.35;;
60243;SDS011;46106;51.468;5.814;2022-08-21T00:18:26;73.18;;;28.05;;
60243;SDS011;46106;51.468;5.814;2022-08-21T00:20:52;70.13;;;31.02;;
60243;SDS011;46106;51.468;5.814;2022-08-21T00:23:19;82.88;;;31.65;;
60243;SDS011;46106;51.468;5.814;2022-08-21T00:25:44;76.30;;;31.02;;
60243;SDS011;46106;51.468;5.814;2022-08-21T00:28:11;72.15;;;29.13;;
60243;SDS011;46106;51.468;5.814;2022-08-21T00:30:38;70.13;;;28.80;;
60243;SDS011;46106;51.468;5.814;2022-08-21T00:33:05;67.30;;;28.38;;
60243;SDS011;46106;51.468;5.814;2022-08-21T00:35:33;75.55;;;32.53;;
60243;SDS011;46106;51.468;5.814;2022-08-21T00:38:00;69.28;;;32.25;;
60243;SDS011;46106;51.468;5.814;2022-08-21T00:40:36;73.32;;;28.02;;
60243;SDS011;46106;51.468;5.814;2022-08-21T00:43:12;61.15;;;25.23;;
60243;SDS011;46106;51.468;5.814;2022-08-21T00:45:42;55.47;;;23.83;;
60243;SDS011;46106;51.468;5.814;2022-08-21T00:48:07;65.45;;;26.38;;
60243;SDS011;46106;51.468;5.814;2022-08-21T00:50:35;64.32;;;27.77;;
60243;SDS011;46106;51.468;5.814;2022-08-21T00:53:05;70.75;;;27.40;;
60243;SDS011;46106;51.468;5.814;2022-08-21T00:55:33;79.53;;;27.98;;
60243;SDS011;46106;51.468;5.814;2022-08-21T00:58:05;59.63;;;26.05;;
60243;SDS011;46106;51.468;5.814;2022-08-21T01:00:35;69.72;;;27.35;;
60243;SDS011;46106;51.468;5.814;2022-08-21T01:03:06;59.83;;;25.67;;
60243;SDS011;46106;51.468;5.814;2022-08-21T01:05:34;61.20;;;25.73;;
60243;SDS011;46106;51.468;5.814;2022-08-21T01:08:01;59.28;;;25.33;;
60243;SDS011;46106;51.468;5.814;2022-08-21T01:10:30;58.17;;;24.83;;
60243;SDS011;46106;51.468;5.814;2022-08-21T01:12:59;55.58;;;24.38;;
60243;SDS011;46106;51.468;5.814;2022-08-21T01:15:30;57.40;;;25.05;;
60243;SDS011;46106;51.468;5.814;2022-08-21T01:18:01;74.88;;;26.50;;
60243;SDS011;46106;51.468;5.814;2022-08-21T01:20:28;62.08;;;28.23;;
60243;SDS011;46106;51.468;5.814;2022-08-21T01:22:55;66.25;;;28.33;;
60243;SDS011;46106;51.468;5.814;2022-08-21T01:25:21;54.33;;;26.33;;
60243;SDS011;46106;51.468;5.814;2022-08-21T01:27:47;59.55;;;25.63;;
60243;SDS011;46106;51.468;5.814;2022-08-21T01:30:18;64.03;;;24.08;;
60243;SDS011;46106;51.468;5.814;2022-08-21T01:32:47;61.78;;;24.45;;
60243;SDS011;46106;51.468;5.814;2022-08-21T01:35:17;56.13;;;24.90;;
60243;SDS011;46106;51.468;5.814;2022-08-21T01:37:43;50.58;;;24.10;;
60243;SDS011;46106;51.468;5.814;2022-08-21T01:40:10;59.10;;;24.63;;
60243;SDS011;46106;51.468;5.814;2022-08-21T01:42:37;72.55;;;26.88;;
60243;SDS011;46106;51.468;5.814;2022-08-21T01:45:07;81.32;;;26.70;;
60243;SDS011;46106;51.468;5.814;2022-08-21T01:47:38;59.90;;;26.98;;
60243;SDS011;46106;51.468;5.814;2022-08-21T01:50:05;53.42;;;24.67;;
60243;SDS011;46106;51.468;5.814;2022-08-21T01:52:33;63.08;;;25.70;;
60243;SDS011;46106;51.468;5.814;2022-08-21T01:55:00;49.75;;;23.50;;
60243;SDS011;46106;51.468;5.814;2022-08-21T01:57:26;59.58;;;24.98;;
60243;SDS011;46106;51.468;5.814;2022-08-21T01:59:51;73.68;;;29.17;;
60243;SDS011;46106;51.468;5.814;2022-08-21T02:02:21;63.40;;;27.85;;
60243;SDS011;46106;51.468;5.814;2022-08-21T02:04:47;67.68;;;27.25;;
60243;SDS011;46106;51.468;5.814;2022-08-21T02:07:13;81.25;;;29.23;;
60243;SDS011;46106;51.468;5.814;2022-08-21T02:09:45;65.03;;;28.60;;
60243;SDS011;46106;51.468;5.814;2022-08-21T02:12:15;70.95;;;27.75;;
60243;SDS011;46106;51.468;5.814;2022-08-21T02:14:45;66.18;;;25.83;;
60243;SDS011;46106;51.468;5.814;2022-08-21T02:17:15;73.10;;;29.63;;
60243;SDS011;46106;51.468;5.814;2022-08-21T02:19:40;70.35;;;27.75;;
60243;SDS011;46106;51.468;5.814;2022-08-21T02:22:09;69.55;;;27.17;;
60243;SDS011;46106;51.468;5.814;2022-08-21T02:24:38;87.80;;;28.88;;
60243;SDS011;46106;51.468;5.814;2022-08-21T02:27:04;69.75;;;28.63;;
60243;SDS011;46106;51.468;5.814;2022-08-21T02:29:30;64.25;;;29.60;;
60243;SDS011;46106;51.468;5.814;2022-08-21T02:31:57;74.47;;;31.55;;
60243;SDS011;46106;51.468;5.814;2022-08-21T02:34:25;56.63;;;25.92;;
60243;SDS011;46106;51.468;5.814;2022-08-21T02:36:50;52.05;;;23.77;;
60243;SDS011;46106;51.468;5.814;2022-08-21T02:39:19;56.65;;;24.77;;
60243;SDS011;46106;51.468;5.814;2022-08-21T02:41:44;56.80;;;26.25;;
60243;SDS011;46106;51.468;5.814;2022-08-21T02:44:13;49.63;;;23.73;;
60243;SDS011;46106;51.468;5.814;2022-08-21T02:46:42;59.53;;;25.77;;
60243;SDS011;46106;51.468;5.814;2022-08-21T02:49:08;61.17;;;27.13;;
60243;SDS011;46106;51.468;5.814;2022-08-21T02:51:33;56.67;;;25.95;;
60243;SDS011;46106;51.468;5.814;2022-08-21T02:53:59;53.53;;;24.58;;
60243;SDS011;46106;51.468;5.814;2022-08-21T02:56:26;66.68;;;27.60;;
60243;SDS011;46106;51.468;5.814;2022-08-21T02:58:53;60.95;;;27.52;;
60243;SDS011;46106;51.468;5.814;2022-08-21T03:01:19;62.63;;;24.60;;
60243;SDS011;46106;51.468;5.814;2022-08-21T03:03:46;59.78;;;26.88;;
60243;SDS011;46106;51.468;5.814;2022-08-21T03:06:15;54.97;;;26.35;;
60243;SDS011;46106;51.468;5.814;2022-08-21T03:08:42;64.25;;;27.55;;
60243;SDS011;46106;51.468;5.814;2022-08-21T03:11:14;66.15;;;28.55;;
60243;SDS011;46106;51.468;5.814;2022-08-21T03:13:42;60.88;;;30.00;;
60243;SDS011;46106;51.468;5.814;2022-08-21T03:16:08;51.67;;;25.52;;
60243;SDS011;46106;51.468;5.814;2022-08-21T03:18:34;68.75;;;29.25;;
60243;SDS011;46106;51.468;5.814;2022-08-21T03:21:00;59.55;;;27.55;;
60243;SDS011;46106;51.468;5.814;2022-08-21T03:23:26;77.28;;;30.73;;
60243;SDS011;46106;51.468;5.814;2022-08-21T03:25:54;67.03;;;31.15;;
60243;SDS011;46106;51.468;5.814;2022-08-21T03:28:20;78.18;;;34.72;;
60243;SDS011;46106;51.468;5.814;2022-08-21T03:30:47;84.30;;;36.90;;
60243;SDS011;46106;51.468;5.814;2022-08-21T03:33:15;97.38;;;40.30;;
60243;SDS011;46106;51.468;5.814;2022-08-21T03:35:42;89.70;;;40.25;;
60243;SDS011;46106;51.468;5.814;2022-08-21T03:38:13;88.82;;;39.60;;
60243;SDS011;46106;51.468;5.814;2022-08-21T03:40:40;86.07;;;38.40;;
60243;SDS011;46106;51.468;5.814;2022-08-21T03:43:08;79.65;;;37.53;;
60243;SDS011;46106;51.468;5.814;2022-08-21T03:45:34;82.15;;;34.83;;
60243;SDS011;46106;51.468;5.814;2022-08-21T03:48:01;84.57;;;35.55;;
60243;SDS011;46106;51.468;5.814;2022-08-21T03:50:30;75.60;;;34.85;;
60243;SDS011;46106;51.468;5.814;2022-08-21T03:53:03;104.00;;;35.85;;
60243;SDS011;46106;51.468;5.814;2022-08-21T03:55:29;73.05;;;31.60;;
60243;SDS011;46106;51.468;5.814;2022-08-21T03:57:54;65.35;;;30.77;;
60243;SDS011;46106;51.468;5.814;2022-08-21T04:00:21;64.53;;;30.23;;
60243;SDS011;46106;51.468;5.814;2022-08-21T04:02:47;75.75;;;29.17;;
60243;SDS011;46106;51.468;5.814;2022-08-21T04:05:17;61.28;;;27.83;;
60243;SDS011;46106;51.468;5.814;2022-08-21T04:07:58;55.53;;;26.17;;
60243;SDS011;46106;51.468;5.814;2022-08-21T04:10:31;65.20;;;25.58;;
60243;SDS011;46106;51.468;5.814;2022-08-21T04:13:03;47.20;;;24.27;;
60243;SDS011;46106;51.468;5.814;2022-08-21T04:15:30;54.28;;;24.83;;
60243;SDS011;46106;51.468;5.814;2022-08-21T04:17:56;52.53;;;24.65;;
60243;SDS011;46106;51.468;5.814;2022-08-21T04:20:23;49.97;;;23.23;;
60243;SDS011;46106;51.468;5.814;2022-08-21T04:22:50;55.50;;;23.50;;
60243;SDS011;46106;51.468;5.814;2022-08-21T04:25:17;58.65;;;22.58;;
60243;SDS011;46106;51.468;5.814;2022-08-21T04:27:48;51.55;;;21.52;;
60243;SDS011;46106;51.468;5.814;2022-08-21T04:30:14;38.92;;;20.83;;
60243;SDS011;46106;51.468;5.814;2022-08-21T04:32:43;49.78;;;22.17;;
60243;SDS011;46106;51.468;5.814;2022-08-21T04:35:14;41.67;;;21.15;;
60243;SDS011;46106;51.468;5.814;2022-08-21T04:37:41;39.45;;;18.73;;
60243;SDS011;46106;51.468;5.814;2022-08-21T04:40:07;41.55;;;19.15;;
60243;SDS011;46106;51.468;5.814;2022-08-21T04:42:40;44.15;;;18.77;;
60243;SDS011;46106;51.468;5.814;2022-08-21T04:47:51;40.00;;;17.15;;
60243;SDS011;46106;51.468;5.814;2022-08-21T04:50:17;44.13;;;17.30;;
60243;SDS011;46106;51.468;5.814;2022-08-21T04:52:43;40.60;;;17.60;;
60243;SDS011;46106;51.468;5.814;2022-08-21T04:55:12;39.25;;;15.73;;
60243;SDS011;46106;51.468;5.814;2022-08-21T04:57:38;38.55;;;17.50;;
60243;SDS011;46106;51.468;5.814;2022-08-21T05:00:06;34.25;;;17.95;;
60243;SDS011;46106;51.468;5.814;2022-08-21T05:02:35;40.92;;;18.00;;
60243;SDS011;46106;51.468;5.814;2022-08-21T05:05:04;36.63;;;18.38;;
60243;SDS011;46106;51.468;5.814;2022-08-21T05:07:32;45.13;;;17.90;;
60243;SDS011;46106;51.468;5.814;2022-08-21T05:09:59;37.75;;;17.40;;
60243;SDS011;46106;51.468;5.814;2022-08-21T05:12:26;49.67;;;18.35;;
60243;SDS011;46106;51.468;5.814;2022-08-21T05:14:52;32.90;;;17.52;;
60243;SDS011;46106;51.468;5.814;2022-08-21T05:17:17;35.60;;;17.52;;
60243;SDS011;46106;51.468;5.814;2022-08-21T05:19:46;40.30;;;17.52;;
60243;SDS011;46106;51.468;5.814;2022-08-21T05:22:18;34.05;;;17.30;;
60243;SDS011;46106;51.468;5.814;2022-08-21T05:24:48;36.03;;;16.25;;
60243;SDS011;46106;51.468;5.814;2022-08-21T05:27:14;31.48;;;16.85;;
60243;SDS011;46106;51.468;5.814;2022-08-21T05:29:40;30.30;;;15.57;;
60243;SDS011;46106;51.468;5.814;2022-08-21T05:32:13;40.05;;;16.42;;
60243;SDS011;46106;51.468;5.814;2022-08-21T05:34:39;30.85;;;15.60;;
60243;SDS011;46106;51.468;5.814;2022-08-21T05:37:10;34.33;;;14.75;;
60243;SDS011;46106;51.468;5.814;2022-08-21T05:39:38;34.92;;;14.45;;
60243;SDS011;46106;51.468;5.814;2022-08-21T05:42:06;31.00;;;13.68;;
60243;SDS011;46106;51.468;5.814;2022-08-21T05:44:32;38.13;;;13.93;;
60243;SDS011;46106;51.468;5.814;2022-08-21T05:47:05;35.75;;;12.82;;
60243;SDS011;46106;51.468;5.814;2022-08-21T05:49:33;29.03;;;11.37;;
60243;SDS011;46106;51.468;5.814;2022-08-21T05:51:59;19.25;;;10.13;;
60243;SDS011;46106;51.468;5.814;2022-08-21T05:54:26;34.40;;;11.23;;
60243;SDS011;46106;51.468;5.814;2022-08-21T05:56:52;21.92;;;10.55;;
60243;SDS011;46106;51.468;5.814;2022-08-21T05:59:19;23.42;;;10.05;;
60243;SDS011;46106;51.468;5.814;2022-08-21T06:01:44;28.08;;;9.95;;
60243;SDS011;46106;51.468;5.814;2022-08-21T06:04:11;20.23;;;8.88;;
60243;SDS011;46106;51.468;5.814;2022-08-21T06:06:37;21.35;;;8.95;;
60243;SDS011;46106;51.468;5.814;2022-08-21T06:09:03;31.67;;;8.98;;
60243;SDS011;46106;51.468;5.814;2022-08-21T06:11:31;28.77;;;8.07;;
60243;SDS011;46106;51.468;5.814;2022-08-21T06:13:57;29.42;;;8.63;;
60243;SDS011;46106;51.468;5.814;2022-08-21T06:16:23;33.40;;;9.60;;
60243;SDS011;46106;51.468;5.814;2022-08-21T06:18:50;22.63;;;7.97;;
60243;SDS011;46106;51.468;5.814;2022-08-21T06:21:16;23.05;;;7.72;;
60243;SDS011;46106;51.468;5.814;2022-08-21T06:23:44;24.45;;;8.80;;
60243;SDS011;46106;51.468;5.814;2022-08-21T06:26:11;34.38;;;8.90;;
60243;SDS011;46106;51.468;5.814;2022-08-21T06:28:38;29.65;;;8.02;;
60243;SDS011;46106;51.468;5.814;2022-08-21T06:31:15;22.58;;;8.40;;
60243;SDS011;46106;51.468;5.814;2022-08-21T06:33:42;23.58;;;8.88;;
60243;SDS011;46106;51.468;5.814;2022-08-21T06:36:08;27.88;;;8.88;;
60243;SDS011;46106;51.468;5.814;2022-08-21T06:38:35;26.30;;;8.90;;
60243;SDS011;46106;51.468;5.814;2022-08-21T06:41:01;21.30;;;9.80;;
60243;SDS011;46106;51.468;5.814;2022-08-21T06:43:27;29.52;;;9.95;;
60243;SDS011;46106;51.468;5.814;2022-08-21T06:45:52;28.45;;;8.57;;
60243;SDS011;46106;51.468;5.814;2022-08-21T06:48:18;31.20;;;8.10;;
60243;SDS011;46106;51.468;5.814;2022-08-21T06:50:44;23.27;;;8.50;;
60243;SDS011;46106;51.468;5.814;2022-08-21T06:53:11;25.33;;;8.63;;
60243;SDS011;46106;51.468;5.814;2022-08-21T06:55:43;34.08;;;9.80;;
60243;SDS011;46106;51.468;5.814;2022-08-21T06:58:11;32.25;;;9.18;;
60243;SDS011;46106;51.468;5.814;2022-08-21T07:00:44;32.08;;;8.48;;
60243;SDS011;46106;51.468;5.814;2022-08-21T07:03:18;21.70;;;7.38;;
60243;SDS011;46106;51.468;5.814;2022-08-21T07:05:53;23.33;;;7.00;;
60243;SDS011;46106;51.468;5.814;2022-08-21T07:08:25;29.45;;;7.00;;
60243;SDS011;46106;51.468;5.814;2022-08-21T07:10:55;33.78;;;7.68;;
60243;SDS011;46106;51.468;5.814;2022-08-21T07:13:23;23.88;;;7.53;;
60243;SDS011;46106;51.468;5.814;2022-08-21T07:15:51;28.05;;;8.55;;
60243;SDS011;46106;51.468;5.814;2022-08-21T07:18:19;30.27;;;8.60;;
60243;SDS011;46106;51.468;5.814;2022-08-21T07:20:45;38.25;;;9.75;;
60243;SDS011;46106;51.468;5.814;2022-08-21T07:23:22;42.00;;;8.68;;
60243;SDS011;46106;51.468;5.814;2022-08-21T07:25:49;32.85;;;9.05;;
60243;SDS011;46106;51.468;5.814;2022-08-21T07:28:15;35.92;;;8.85;;
60243;SDS011;46106;51.468;5.814;2022-08-21T07:30:41;30.45;;;8.35;;
60243;SDS011;46106;51.468;5.814;2022-08-21T07:33:11;44.00;;;9.07;;
60243;SDS011;46106;51.468;5.814;2022-08-21T07:35:37;37.47;;;8.55;;
60243;SDS011;46106;51.468;5.814;2022-08-21T07:38:07;42.72;;;10.35;;
60243;SDS011;46106;51.468;5.814;2022-08-21T07:40:36;43.47;;;10.18;;
60243;SDS011;46106;51.468;5.814;2022-08-21T07:43:01;37.13;;;9.45;;
60243;SDS011;46106;51.468;5.814;2022-08-21T07:45:29;56.92;;;10.27;;
60243;SDS011;46106;51.468;5.814;2022-08-21T07:47:57;35.05;;;9.38;;
60243;SDS011;46106;51.468;5.814;2022-08-21T07:50:23;47.33;;;8.13;;
60243;SDS011;46106;51.468;5.814;2022-08-21T07:52:50;36.33;;;9.00;;
60243;SDS011;46106;51.468;5.814;2022-08-21T07:55:17;41.03;;;8.98;;
60243;SDS011;46106;51.468;5.814;2022-08-21T07:57:45;43.08;;;9.60;;
60243;SDS011;46106;51.468;5.814;2022-08-21T08:00:13;46.55;;;9.55;;
60243;SDS011;46106;51.468;5.814;2022-08-21T08:02:43;37.25;;;9.65;;
60243;SDS011;46106;51.468;5.814;2022-08-21T08:05:10;40.40;;;10.07;;
60243;SDS011;46106;51.468;5.814;2022-08-21T08:07:38;46.05;;;8.60;;
60243;SDS011;46106;51.468;5.814;2022-08-21T08:10:04;37.08;;;9.00;;
60243;SDS011;46106;51.468;5.814;2022-08-21T08:12:34;41.10;;;8.13;;
60243;SDS011;46106;51.468;5.814;2022-08-21T08:15:03;44.63;;;8.90;;
60243;SDS011;46106;51.468;5.814;2022-08-21T08:17:34;45.15;;;8.45;;
60243;SDS011;46106;51.468;5.814;2022-08-21T08:20:07;47.55;;;8.10;;
60243;SDS011;46106;51.468;5.814;2022-08-21T08:22:36;40.37;;;8.40;;
60243;SDS011;46106;51.468;5.814;2022-08-21T08:25:05;56.63;;;8.23;;
60243;SDS011;46106;51.468;5.814;2022-08-21T08:27:36;42.28;;;7.25;;
60243;SDS011;46106;51.468;5.814;2022-08-21T08:30:03;46.15;;;7.00;;
60243;SDS011;46106;51.468;5.814;2022-08-21T08:32:30;52.42;;;7.72;;
60243;SDS011;46106;51.468;5.814;2022-08-21T08:34:56;54.15;;;8.88;;
60243;SDS011;46106;51.468;5.814;2022-08-21T08:37:22;62.25;;;7.97;;
60243;SDS011;46106;51.468;5.814;2022-08-21T08:39:48;41.45;;;6.68;;
60243;SDS011;46106;51.468;5.814;2022-08-21T08:42:24;48.53;;;7.30;;
60243;SDS011;46106;51.468;5.814;2022-08-21T08:44:58;34.15;;;7.20;;
60243;SDS011;46106;51.468;5.814;2022-08-21T08:47:42;36.28;;;5.88;;
60243;SDS011;46106;51.468;5.814;2022-08-21T08:50:25;40.28;;;5.75;;
60243;SDS011;46106;51.468;5.814;2022-08-21T08:53:01;24.70;;;4.05;;
60243;SDS011;46106;51.468;5.814;2022-08-21T08:55:36;25.48;;;4.00;;
60243;SDS011;46106;51.468;5.814;2022-08-21T08:58:29;31.98;;;4.47;;
60243;SDS011;46106;51.468;5.814;2022-08-21T09:01:17;30.17;;;4.28;;
60243;SDS011;46106;51.468;5.814;2022-08-21T09:03:46;39.22;;;4.72;;
60243;SDS011;46106;51.468;5.814;2022-08-21T09:06:34;31.77;;;4.28;;
60243;SDS011;46106;51.468;5.814;2022-08-21T09:11:56;15.85;;;3.10;;
60243;SDS011;46106;51.468;5.814;2022-08-21T09:27:47;29.73;;;2.85;;
60243;SDS011;46106;51.468;5.814;2022-08-21T09:30:13;21.40;;;2.70;;
60243;SDS011;46106;51.468;5.814;2022-08-21T09:32:42;30.40;;;3.05;;
60243;SDS011;46106;51.468;5.814;2022-08-21T09:37:34;15.48;;;2.30;;
60243;SDS011;46106;51.468;5.814;2022-08-21T09:43:10;28.15;;;2.97;;
60243;SDS011;46106;51.468;5.814;2022-08-21T09:45:41;26.50;;;2.92;;
60243;SDS011;46106;51.468;5.814;2022-08-21T09:50:37;26.55;;;2.60;;
60243;SDS011;46106;51.468;5.814;2022-08-21T09:53:26;19.48;;;2.28;;
60243;SDS011;46106;51.468;5.814;2022-08-21T09:56:02;17.40;;;3.05;;
60243;SDS011;46106;51.468;5.814;2022-08-21T09:58:49;18.80;;;2.15;;
60243;SDS011;46106;51.468;5.814;2022-08-21T10:01:18;29.48;;;2.88;;
60243;SDS011;46106;51.468;5.814;2022-08-21T10:03:47;21.30;;;2.45;;
60243;SDS011;46106;51.468;5.814;2022-08-21T10:06:26;19.30;;;2.25;;
60243;SDS011;46106;51.468;5.814;2022-08-21T10:09:10;20.35;;;2.40;;
60243;SDS011;46106;51.468;5.814;2022-08-21T10:11:43;15.05;;;2.40;;
60243;SDS011;46106;51.468;5.814;2022-08-21T10:14:30;17.40;;;2.60;;
60243;SDS011;46106;51.468;5.814;2022-08-21T10:20:37;15.65;;;1.92;;
60243;SDS011;46106;51.468;5.814;2022-08-21T10:45:39;16.75;;;2.08;;
60243;SDS011;46106;51.468;5.814;2022-08-21T10:48:24;13.98;;;2.22;;
60243;SDS011;46106;51.468;5.814;2022-08-21T10:57:51;16.77;;;2.28;;
60243;SDS011;46106;51.468;5.814;2022-08-21T10:59:57;22.70;;;2.35;;
60243;SDS011;46106;51.468;5.814;2022-08-21T11:02:37;19.77;;;2.55;;
60243;SDS011;46106;51.468;5.814;2022-08-21T11:05:28;18.33;;;2.20;;
60243;SDS011;46106;51.468;5.814;2022-08-21T11:08:50;11.50;;;1.85;;
60243;SDS011;46106;51.468;5.814;2022-08-21T11:11:05;8.02;;;1.50;;
60243;SDS011;46106;51.468;5.814;2022-08-21T11:19:07;20.88;;;1.95;;
60243;SDS011;46106;51.468;5.814;2022-08-21T11:21:48;13.60;;;1.75;;
60243;SDS011;46106;51.468;5.814;2022-08-21T11:29:52;12.35;;;1.63;;
60243;SDS011;46106;51.468;5.814;2022-08-21T11:35:14;6.28;;;1.17;;
60243;SDS011;46106;51.468;5.814;2022-08-21T11:37:45;8.82;;;1.70;;
60243;SDS011;46106;51.468;5.814;2022-08-21T11:42:56;12.18;;;1.50;;
60243;SDS011;46106;51.468;5.814;2022-08-21T11:48:31;10.65;;;1.65;;
60243;SDS011;46106;51.468;5.814;2022-08-21T11:51:27;9.85;;;1.45;;
60243;SDS011;46106;51.468;5.814;2022-08-21T11:54:29;8.60;;;1.40;;
60243;SDS011;46106;51.468;5.814;2022-08-21T11:57:22;14.63;;;1.92;;
60243;SDS011;46106;51.468;5.814;2022-08-21T12:02:43;13.95;;;1.95;;
60243;SDS011;46106;51.468;5.814;2022-08-21T12:05:23;9.15;;;1.60;;
60243;SDS011;46106;51.468;5.814;2022-08-21T12:08:07;13.68;;;2.15;;
60243;SDS011;46106;51.468;5.814;2022-08-21T12:10:47;12.98;;;1.52;;
60243;SDS011;46106;51.468;5.814;2022-08-21T12:16:16;7.80;;;1.85;;
60243;SDS011;46106;51.468;5.814;2022-08-21T12:18:44;10.55;;;1.70;;
60243;SDS011;46106;51.468;5.814;2022-08-21T12:23:59;13.57;;;1.70;;
60243;SDS011;46106;51.468;5.814;2022-08-21T12:26:35;10.88;;;2.50;;
60243;SDS011;46106;51.468;5.814;2022-08-21T12:29:16;9.55;;;2.00;;
60243;SDS011;46106;51.468;5.814;2022-08-21T12:34:30;8.23;;;1.80;;
60243;SDS011;46106;51.468;5.814;2022-08-21T12:37:04;11.23;;;2.03;;
60243;SDS011;46106;51.468;5.814;2022-08-21T12:39:39;11.40;;;1.95;;
60243;SDS011;46106;51.468;5.814;2022-08-21T12:42:17;12.88;;;2.17;;
60243;SDS011;46106;51.468;5.814;2022-08-21T12:44:47;9.27;;;1.90;;
60243;SDS011;46106;51.468;5.814;2022-08-21T12:47:20;12.98;;;1.90;;
60243;SDS011;46106;51.468;5.814;2022-08-21T12:49:54;12.80;;;2.40;;
60243;SDS011;46106;51.468;5.814;2022-08-21T12:52:45;8.48;;;2.00;;
60243;SDS011;46106;51.468;5.814;2022-08-21T12:55:25;11.23;;;2.33;;
60243;SDS011;46106;51.468;5.814;2022-08-21T12:58:00;10.43;;;2.35;;
60243;SDS011;46106;51.468;5.814;2022-08-21T13:00:28;9.95;;;2.40;;
60243;SDS011;46106;51.468;5.814;2022-08-21T13:03:04;12.57;;;2.17;;
60243;SDS011;46106;51.468;5.814;2022-08-21T13:05:33;12.00;;;1.90;;
60243;SDS011;46106;51.468;5.814;2022-08-21T13:08:07;17.30;;;2.35;;
60243;SDS011;46106;51.468;5.814;2022-08-21T13:10:39;8.82;;;2.25;;
60243;SDS011;46106;51.468;5.814;2022-08-21T13:13:16;11.13;;;2.28;;
60243;SDS011;46106;51.468;5.814;2022-08-21T13:15:46;12.00;;;2.33;;
60243;SDS011;46106;51.468;5.814;2022-08-21T13:18:20;7.15;;;1.95;;
60243;SDS011;46106;51.468;5.814;2022-08-21T13:20:48;7.38;;;2.15;;
60243;SDS011;46106;51.468;5.814;2022-08-21T13:23:25;9.27;;;1.95;;
60243;SDS011;46106;51.468;5.814;2022-08-21T13:25:53;9.68;;;1.83;;
60243;SDS011;46106;51.468;5.814;2022-08-21T13:28:19;14.85;;;2.05;;
60243;SDS011;46106;51.468;5.814;2022-08-21T13:30:49;9.00;;;2.08;;
60243;SDS011;46106;51.468;5.814;2022-08-21T13:33:22;14.95;;;2.47;;
60243;SDS011;46106;51.468;5.814;2022-08-21T13:35:51;9.05;;;2.50;;
60243;SDS011;46106;51.468;5.814;2022-08-21T13:38:29;6.97;;;1.92;;
60243;SDS011;46106;51.468;5.814;2022-08-21T13:40:58;15.23;;;1.95;;
60243;SDS011;46106;51.468;5.814;2022-08-21T13:43:29;13.18;;;2.38;;
60243;SDS011;46106;51.468;5.814;2022-08-21T13:45:59;7.72;;;1.90;;
60243;SDS011;46106;51.468;5.814;2022-08-21T13:48:30;10.65;;;1.75;;
60243;SDS011;46106;51.468;5.814;2022-08-21T13:51:00;7.87;;;1.80;;
60243;SDS011;46106;51.468;5.814;2022-08-21T13:55:57;7.05;;;1.90;;
60243;SDS011;46106;51.468;5.814;2022-08-21T13:58:28;8.30;;;1.95;;
60243;SDS011;46106;51.468;5.814;2022-08-21T14:00:55;9.77;;;1.93;;
60243;SDS011;46106;51.468;5.814;2022-08-21T14:03:42;7.25;;;1.83;;
60243;SDS011;46106;51.468;5.814;2022-08-21T14:06:12;6.43;;;1.85;;
60243;SDS011;46106;51.468;5.814;2022-08-21T14:08:47;14.25;;;2.05;;
60243;SDS011;46106;51.468;5.814;2022-08-21T14:11:16;9.20;;;2.33;;
60243;SDS011;46106;51.468;5.814;2022-08-21T14:16:21;8.80;;;2.13;;
60243;SDS011;46106;51.468;5.814;2022-08-21T14:18:52;11.02;;;2.30;;
60243;SDS011;46106;51.468;5.814;2022-08-21T14:21:36;7.25;;;1.98;;
60243;SDS011;46106;51.468;5.814;2022-08-21T14:24:06;13.18;;;2.20;;
60243;SDS011;46106;51.468;5.814;2022-08-21T14:26:37;12.37;;;2.47;;
60243;SDS011;46106;51.468;5.814;2022-08-21T14:29:16;7.28;;;2.00;;
60243;SDS011;46106;51.468;5.814;2022-08-21T14:31:48;11.70;;;2.35;;
60243;SDS011;46106;51.468;5.814;2022-08-21T14:34:19;17.80;;;2.38;;
60243;SDS011;46106;51.468;5.814;2022-08-21T14:36:47;11.85;;;2.60;;
60243;SDS011;46106;51.468;5.814;2022-08-21T14:39:14;10.15;;;2.55;;
60243;SDS011;46106;51.468;5.814;2022-08-21T14:41:42;6.57;;;2.20;;
60243;SDS011;46106;51.468;5.814;2022-08-21T14:44:08;14.82;;;2.70;;
60243;SDS011;46106;51.468;5.814;2022-08-21T14:46:41;19.52;;;3.03;;
60243;SDS011;46106;51.468;5.814;2022-08-21T14:49:08;9.38;;;2.25;;
60243;SDS011;46106;51.468;5.814;2022-08-21T14:51:33;13.43;;;2.55;;
60243;SDS011;46106;51.468;5.814;2022-08-21T14:53:59;10.80;;;2.20;;
60243;SDS011;46106;51.468;5.814;2022-08-21T14:56:25;11.73;;;2.35;;
60243;SDS011;46106;51.468;5.814;2022-08-21T14:58:53;6.63;;;1.80;;
60243;SDS011;46106;51.468;5.814;2022-08-21T15:01:24;9.57;;;2.22;;
60243;SDS011;46106;51.468;5.814;2022-08-21T15:03:49;9.45;;;2.75;;
60243;SDS011;46106;51.468;5.814;2022-08-21T15:06:18;10.40;;;2.50;;
60243;SDS011;46106;51.468;5.814;2022-08-21T15:08:46;12.43;;;2.88;;
60243;SDS011;46106;51.468;5.814;2022-08-21T15:11:16;12.02;;;2.78;;
60243;SDS011;46106;51.468;5.814;2022-08-21T15:13:45;11.20;;;2.58;;
60243;SDS011;46106;51.468;5.814;2022-08-21T15:16:14;9.65;;;2.70;;
60243;SDS011;46106;51.468;5.814;2022-08-21T15:18:40;17.50;;;2.78;;
60243;SDS011;46106;51.468;5.814;2022-08-21T15:21:09;12.73;;;2.63;;
60243;SDS011;46106;51.468;5.814;2022-08-21T15:23:38;11.32;;;3.53;;
60243;SDS011;46106;51.468;5.814;2022-08-21T15:26:06;11.20;;;2.90;;
60243;SDS011;46106;51.468;5.814;2022-08-21T15:28:33;10.05;;;2.65;;
60243;SDS011;46106;51.468;5.814;2022-08-21T15:31:00;11.93;;;2.38;;
60243;SDS011;46106;51.468;5.814;2022-08-21T15:33:29;14.93;;;2.50;;
60243;SDS011;46106;51.468;5.814;2022-08-21T15:36:00;9.20;;;1.90;;
60243;SDS011;46106;51.468;5.814;2022-08-21T15:38:26;9.68;;;1.90;;
60243;SDS011;46106;51.468;5.814;2022-08-21T15:40:51;11.07;;;2.10;;
60243;SDS011;46106;51.468;5.814;2022-08-21T15:43:28;11.90;;;2.15;;
60243;SDS011;46106;51.468;5.814;2022-08-21T15:48:29;16.67;;;2.53;;
60243;SDS011;46106;51.468;5.814;2022-08-21T15:50:56;14.95;;;2.22;;
60243;SDS011;46106;51.468;5.814;2022-08-21T15:53:25;12.40;;;2.08;;
60243;SDS011;46106;51.468;5.814;2022-08-21T15:55:55;12.15;;;1.92;;
60243;SDS011;46106;51.468;5.814;2022-08-21T15:58:24;8.80;;;2.58;;
60243;SDS011;46106;51.468;5.814;2022-08-21T16:01:00;10.52;;;2.20;;
60243;SDS011;46106;51.468;5.814;2022-08-21T16:03:27;12.60;;;2.13;;
60243;SDS011;46106;51.468;5.814;2022-08-21T16:05:54;13.65;;;2.42;;
60243;SDS011;46106;51.468;5.814;2022-08-21T16:08:28;11.70;;;2.80;;
60243;SDS011;46106;51.468;5.814;2022-08-21T16:10:56;12.43;;;2.50;;
60243;SDS011;46106;51.468;5.814;2022-08-21T16:13:26;10.25;;;2.42;;
60243;SDS011;46106;51.468;5.814;2022-08-21T16:15:54;15.52;;;2.53;;
60243;SDS011;46106;51.468;5.814;2022-08-21T16:18:20;10.38;;;2.35;;
60243;SDS011;46106;51.468;5.814;2022-08-21T16:20:49;13.88;;;1.92;;
60243;SDS011;46106;51.468;5.814;2022-08-21T16:23:18;12.50;;;2.10;;
60243;SDS011;46106;51.468;5.814;2022-08-21T16:25:44;8.13;;;1.88;;